createdAt,value
2023-04-02T00:01:48.112Z,5.1
2023-04-02T00:07:10.594Z,5.1
2023-04-02T00:13:01.510Z,4.9
2023-04-02T00:18:52.858Z,4.9
2023-04-02T00:24:46.055Z,4.8
2023-04-02T00:30:38.472Z,4.8
2023-04-02T00:36:30.726Z,4.8
2023-04-02T00:42:22.065Z,4.7
2023-04-02T00:48:14.269Z,4.7
2023-04-02T00:54:05.914Z,4.6
2023-04-02T00:59:41.392Z,4.6
2023-04-02T01:05:35.973Z,4.5
2023-04-02T01:11:28.458Z,4.4
2023-04-02T01:17:20.377Z,4.3
2023-04-02T01:23:13.013Z,4.3
2023-04-02T01:29:04.835Z,4.3
2023-04-02T01:34:56.043Z,4.1
2023-04-02T01:40:47.943Z,4
2023-04-02T01:46:39.635Z,3.9
2023-04-02T01:52:30.484Z,3.8
2023-04-02T01:58:07.232Z,3.7
2023-04-02T02:03:59.496Z,3.6
2023-04-02T02:09:51.094Z,3.5
2023-04-02T02:15:43.141Z,3.4
2023-04-02T02:21:35.151Z,3.4
2023-04-02T02:27:26.360Z,3.3
2023-04-02T02:33:18.558Z,3.3
2023-04-02T02:39:11.073Z,3.2
2023-04-02T02:45:02.227Z,3.2
2023-04-02T02:50:54.918Z,3.1
2023-04-02T02:56:48.701Z,3.1
2023-04-02T03:02:40.367Z,3.1
2023-04-02T03:08:33.179Z,3
2023-04-02T03:14:24.537Z,2.9
2023-04-02T03:20:00.051Z,2.9
2023-04-02T03:25:37.734Z,2.9
2023-04-02T03:31:29.727Z,2.8
2023-04-02T03:37:06.713Z,2.8
2023-04-02T03:42:58.004Z,2.8
2023-04-02T03:48:49.968Z,2.7
2023-04-02T03:54:41.258Z,2.7
2023-04-02T04:00:29.955Z,2.6
2023-04-02T04:06:21.496Z,2.5
2023-04-02T04:12:12.306Z,2.5
2023-04-02T04:18:05.457Z,2.4
2023-04-02T04:23:57.012Z,2.4
2023-04-02T04:29:48.603Z,2.3
2023-04-02T04:35:41.202Z,2.3
2023-04-02T04:41:32.770Z,2.3
2023-04-02T04:47:24.809Z,2.2
2023-04-02T04:53:15.842Z,2.3
2023-04-02T04:59:24.896Z,2.4
2023-04-02T05:05:19.179Z,2.6
2023-04-02T05:11:10.623Z,2.9
2023-04-02T05:17:01.955Z,3.4
2023-04-02T05:22:39.474Z,4.1
2023-04-02T05:28:31.918Z,4.9
2023-04-02T05:34:23.175Z,6.1
2023-04-02T05:40:14.324Z,7.6
2023-04-02T05:46:06.005Z,9.4
2023-04-02T05:51:57.866Z,11.6
2023-04-02T05:58:13.997Z,14.1
2023-04-02T06:04:14.134Z,16.9
2023-04-02T06:10:05.803Z,19.6
2023-04-02T06:15:58.520Z,22.8
2023-04-02T06:21:49.686Z,26.2
2023-04-02T06:27:25.667Z,29.3
2023-04-02T06:33:16.906Z,47.4
2023-04-02T06:38:52.636Z,45.7
2023-04-02T06:44:28.488Z,46.9
2023-04-02T06:50:05.987Z,47.9
2023-04-02T06:55:42.362Z,49.2
2023-04-02T07:01:19.850Z,50.3
2023-04-02T07:06:56.659Z,51.3
2023-04-02T07:12:17.717Z,48.6
2023-04-02T07:17:54.892Z,49.8
2023-04-02T07:23:33.313Z,50.8
2023-04-02T07:29:09.376Z,51.8
2023-04-02T07:34:45.539Z,52.8
2023-04-02T07:40:22.076Z,52
2023-04-02T07:46:16.921Z,53.1
2023-04-02T07:51:53.697Z,54.1
2023-04-02T07:57:30.329Z,54.9
2023-04-02T08:03:23.224Z,55.7
2023-04-02T08:09:00.260Z,56.4
2023-04-02T08:14:54.358Z,57.1
2023-04-02T08:26:35.298Z,58.1
2023-04-02T08:32:27.122Z,58.7
2023-04-02T08:38:19.051Z,59.1
2023-04-02T08:44:10.507Z,59.3
2023-04-02T08:49:55.096Z,60.2
2023-04-02T08:55:31.620Z,60.1
2023-04-02T09:00:54.510Z,59.4
2023-04-02T09:06:33.182Z,60.2
2023-04-02T09:12:25.304Z,59.8
2023-04-02T09:18:31.170Z,59.9
2023-04-02T09:24:22.604Z,59.8
2023-04-02T09:30:10.855Z,58.9
2023-04-02T09:36:16.492Z,59.8
2023-04-02T09:42:04.838Z,61.4
2023-04-02T09:47:58.533Z,60.4
2023-04-02T09:53:50.643Z,59.3
2023-04-02T09:59:29.324Z,58.9
2023-04-02T10:05:30.028Z,60.4
2023-04-02T10:11:13.501Z,60
2023-04-02T10:17:20.528Z,59.9
2023-04-02T10:23:24.449Z,61.9
2023-04-02T10:29:16.889Z,62.1
2023-04-02T10:35:08.566Z,62.6
2023-04-02T10:41:00.384Z,61.4
2023-04-02T10:47:04.229Z,61.1
2023-04-02T10:52:56.580Z,60.7
2023-04-02T10:58:45.703Z,62.7
2023-04-02T11:04:38.192Z,62.3
2023-04-02T11:10:46.364Z,63.2
2023-04-02T11:16:22.249Z,63.8
2023-04-02T11:22:32.867Z,61.9
2023-04-02T11:28:25.100Z,62.5
2023-04-02T11:34:13.953Z,62.8
2023-04-02T11:40:28.148Z,63.2
2023-04-02T11:46:09.620Z,63.1
2023-04-02T11:52:11.741Z,61.7
2023-04-02T11:58:03.899Z,62.8
2023-04-02T12:03:58.373Z,62.3
2023-04-02T12:10:01.524Z,62.2
2023-04-02T12:15:53.000Z,63.2
2023-04-02T12:21:30.574Z,62.1
2023-04-02T12:27:21.805Z,61.4
2023-04-02T12:33:13.896Z,63.1
2023-04-02T12:39:04.906Z,62.6
2023-04-02T12:44:55.880Z,62.1
2023-04-02T12:50:48.222Z,63.1
2023-04-02T12:56:38.864Z,63.4
2023-04-02T13:02:31.811Z,63.9
2023-04-02T13:08:23.644Z,64.3
2023-04-02T13:14:14.467Z,64.3
2023-04-02T13:20:05.726Z,64.3
2023-04-02T13:25:57.586Z,64.1
2023-04-02T13:31:33.021Z,64
2023-04-02T13:37:10.157Z,63.9
2023-04-02T13:43:02.321Z,63.8
2023-04-02T13:48:53.733Z,63.6
2023-04-02T13:54:45.918Z,59.6
2023-04-02T14:00:07.035Z,59.8
2023-04-02T14:06:01.493Z,59
2023-04-02T14:11:38.054Z,58.3
2023-04-02T14:17:30.143Z,57.6
2023-04-02T14:23:23.396Z,55.2
2023-04-02T14:28:44.684Z,53.8
2023-04-02T14:34:21.829Z,53
2023-04-02T14:40:14.039Z,55.4
2023-04-02T14:46:05.910Z,52.6
2023-04-02T14:51:57.630Z,51.5
2023-04-02T14:57:49.437Z,51.1
2023-04-02T15:03:42.278Z,48.1
2023-04-02T15:09:46.837Z,45.3
2023-04-02T15:15:49.608Z,46.7
2023-04-02T15:21:55.538Z,42.9
2023-04-02T15:27:24.785Z,40.3
2023-04-02T15:33:26.148Z,37.7
2023-04-02T15:39:18.838Z,35.5
2023-04-02T15:45:11.288Z,33.6
2023-04-02T15:51:03.293Z,31.8
2023-04-02T15:56:42.702Z,30.3
2023-04-02T16:02:35.172Z,28.8
2023-04-02T16:08:13.555Z,27.4
2023-04-02T16:14:02.072Z,26.2
2023-04-02T16:20:10.961Z,30.4
2023-04-02T16:26:16.234Z,28.4
2023-04-02T16:32:29.108Z,26
2023-04-02T16:38:49.873Z,24.3
2023-04-02T16:44:52.669Z,22.9
2023-04-02T16:50:52.661Z,21.8
2023-04-02T16:56:38.550Z,20.8
2023-04-02T17:02:14.802Z,19.8
2023-04-02T17:08:07.085Z,18.9
2023-04-02T17:13:58.767Z,18
2023-04-02T17:19:57.055Z,17.2
2023-04-02T17:25:57.485Z,16.4
2023-04-02T17:31:49.825Z,15.7
2023-04-02T17:37:41.425Z,15.1
2023-04-02T17:43:17.724Z,14.6
2023-04-02T17:48:38.914Z,14.1
2023-04-02T17:54:33.202Z,13.6
2023-04-02T18:00:24.295Z,13.1
2023-04-02T18:06:19.940Z,12.7
2023-04-02T18:12:11.602Z,12.3
2023-04-02T18:18:03.491Z,11.9
2023-04-02T18:23:57.353Z,11.6
2023-04-02T18:29:33.639Z,11.4
2023-04-02T18:35:25.977Z,11.1
2023-04-02T18:41:17.168Z,10.9
2023-04-02T18:47:08.762Z,10.7
2023-04-02T18:52:59.968Z,10.5
2023-04-02T18:58:51.411Z,10.4
2023-04-02T19:04:45.987Z,10.2
2023-04-02T19:10:22.381Z,10.1
2023-04-02T19:16:13.779Z,9.9
2023-04-02T19:22:06.205Z,9.8
2023-04-02T19:28:00.242Z,9.6
2023-04-02T19:33:51.869Z,9.4
2023-04-02T19:39:27.345Z,9.2
2023-04-02T19:45:18.193Z,9
2023-04-02T19:50:55.036Z,8.8
2023-04-02T19:56:31.223Z,8.6
2023-04-02T20:02:41.450Z,8.5
2023-04-02T20:08:17.628Z,8.3
2023-04-02T20:14:09.622Z,8.2
2023-04-02T20:20:01.123Z,8
2023-04-02T20:25:38.002Z,7.8
2023-04-02T20:30:42.888Z,7.7
2023-04-02T20:36:35.987Z,7.5
2023-04-02T20:41:57.410Z,7.3
2023-04-02T20:47:49.438Z,7.1
2023-04-02T20:53:25.797Z,7
2023-04-02T20:59:01.670Z,6.8
2023-04-02T21:04:37.925Z,6.7
2023-04-02T21:10:29.317Z,6.6
2023-04-02T21:16:21.333Z,6.4
2023-04-02T21:22:13.858Z,6.3
2023-04-02T21:27:50.190Z,6.1
2023-04-02T21:33:33.883Z,6
2023-04-02T21:39:26.899Z,5.9
2023-04-02T21:45:18.931Z,5.7
2023-04-02T21:51:11.767Z,5.6
2023-04-02T21:56:48.538Z,5.5
2023-04-02T22:02:51.567Z,5.4
2023-04-02T22:08:49.748Z,5.4
2023-04-02T22:14:40.875Z,5.3
2023-04-02T22:20:33.901Z,5.1
2023-04-02T22:26:26.440Z,5
2023-04-02T22:31:47.311Z,4.9
2023-04-02T22:37:08.342Z,4.8
2023-04-02T22:42:59.549Z,4.7
2023-04-02T22:48:50.568Z,4.6
2023-04-02T22:54:42.284Z,4.5
2023-04-02T23:00:03.236Z,4.4
2023-04-02T23:05:40.595Z,4.3
2023-04-02T23:11:01.761Z,4.2
2023-04-02T23:16:22.795Z,4.1
2023-04-02T23:21:58.209Z,4.1
2023-04-02T23:27:18.531Z,3.9
2023-04-02T23:32:39.793Z,3.9
2023-04-02T23:38:31.604Z,3.9
2023-04-02T23:44:23.309Z,3.8
2023-04-02T23:50:15.200Z,3.8
2023-04-02T23:56:06.490Z,3.6
